Sitka Rocky Gutierrez Airport
PASI : rendu visible

Aérodrome :











RETROUVEZ-NOUS SUR...

 
LOGIN :

S'inscrire | Disclaimer

   EN    FR    IT 

 









Légende :    VFR   VFR Marginal   IFR   IFR Intensif   IFR Très Intensif
Visi : 
Plafond : 
>= 8 km
>= 3000ft
5 à 8 km
1000 à 3000 ft
1500m à 5 km
500 à 1000 ft
800 à 1500m
200 à 500 ft
< 800m
< 200 ft
Symboles :   Orages  Brouillard  Fortes neiges  Fortes précipitations  Vent > 20 kt






- Altitude de l'aérodrome : 21 ft
- Code IATA : SIT


PASI - Sitka Rocky Gutierrez

DERNIER METAR :
  • 260153Z 17029G45KT 4SM -RA BKN019 OVC025 08/04 A2937 RMK AO2 PK WND 16046/0122 SLP945 P0010 T00780044

METARs EXPIRÉS :
  • 260053Z 17020G30KT 3SM -RA BR BKN016 OVC029 07/04 A2934 RMK AO2 PK WND 17037/0019 SLP934 P0006 T00670044
  • 252353Z 17017G30KT 5SM -RA BR OVC013 07/04 A2931 RMK AO2 PK WND 16030/2350 SLP923 P0004 60014 T00670044 10067 20000 53018
  • 252343Z 13013KT 5SM -RA BR OVC013 04/02 A2930 RMK AO2 P0004 T00390022

TAF PASI
Valide du 26 à 02h jusqu'au 27 à 00h UTC


260209Z 2602/2624 17025G45KT 4SM -SHRA OVC020
FM260500 15020G35KT 4SM RA BR OVC020
FM260700 14015G30KT 6SM -RA OVC025
FM261200 14020G35KT 6SM -RA OVC025
FM261800 14015KT 4SM -RA BKN015 OVC025



MET'MAP, la Météo Aéronautique d'un coup d'oeil ! - Copyright ORBIFLY Décembre 2007 - Disclaimer

ORBIFLY MET'MAP TEAM :

Programmation & Développement : Alexandra Zaïnal
Sur une idée originale de : Baudouin d'Aumeries
Assistance à la programmation : Marc-Olivier Méhu
Soutien technique & logistique : Manuel Goepfert

Contact : metmap@orbifly.com




SOURCES & CREDITS :

   NOAA       Earth
Advisory